Time;durP1;ratioP1;P1;durP2;ratioP2;P2;SDS_P1;SDS_P2;PMS_P1;PMS_P2;Temp;Humidity;BMP_temperature;BMP_pressure;BME280_temperature;BME280_humidity;BME280_pressure;Samples;Min_cycle;Max_cycle;Signal;HPM_P1;HPM_P2
2022/09/03 00:00:54;;;;;;;2.20;1.70;;;;;;;10.29;100.00;96899.19;4992942;28;22303;-54
2022/09/03 00:03:28;;;;;;;2.00;1.80;;;;;;;10.54;100.00;96890.91;4964867;28;21146;-57
2022/09/03 00:06:08;;;;;;;2.40;2.20;;;;;;;10.61;100.00;96896.25;5002221;28;20611;-61
2022/09/03 00:08:41;;;;;;;2.10;2.00;;;;;;;10.74;100.00;96898.16;5004101;28;20259;-55
2022/09/03 00:11:14;;;;;;;2.30;2.13;;;;;;;10.74;100.00;96895.53;5010973;28;20765;-58
2022/09/03 00:13:47;;;;;;;1.93;1.83;;;;;;;10.70;100.00;96895.91;4995467;28;20742;-53
2022/09/03 00:16:20;;;;;;;2.50;2.27;;;;;;;10.66;100.00;96884.06;4987382;28;20291;-54
2022/09/03 00:18:53;;;;;;;2.30;2.20;;;;;;;10.69;100.00;96877.56;4972521;28;20207;-56
2022/09/03 00:21:26;;;;;;;2.17;2.07;;;;;;;10.69;100.00;96877.56;5004206;28;20301;-51
2022/09/03 00:23:55;;;;;;;2.07;1.97;;;;;;;10.58;100.00;96884.19;5009487;28;20801;-58
2022/09/03 00:26:27;;;;;;;2.60;2.50;;;;;;;10.50;100.00;96889.63;5004782;28;20258;-54
2022/09/03 00:29:02;;;;;;;3.00;2.10;;;;;;;10.49;100.00;96890.66;4998371;28;20475;-60
2022/09/03 00:31:35;;;;;;;2.23;2.10;;;;;;;10.53;100.00;96886.59;4997567;28;20232;-57
2022/09/03 00:34:10;;;;;;;2.10;2.00;;;;;;;10.50;100.00;96884.34;4987580;28;20918;-60
2022/09/03 00:36:42;;;;;;;2.47;2.37;;;;;;;10.55;100.00;96882.75;5002730;28;20235;-58
2022/09/03 00:39:15;;;;;;;2.20;2.00;;;;;;;10.53;100.00;96876.81;4952898;28;20212;-57
2022/09/03 00:41:52;;;;;;;2.10;2.00;;;;;;;10.36;100.00;96881.53;4988539;28;20319;-54
2022/09/03 00:44:48;;;;;;;2.13;2.03;;;;;;;10.25;100.00;96876.75;5002737;28;20200;-61
2022/09/03 00:47:23;;;;;;;2.10;2.00;;;;;;;10.27;100.00;96880.84;5002697;28;20201;-59
2022/09/03 00:50:01;;;;;;;3.33;2.17;;;;;;;10.37;100.00;96875.22;5005440;28;20231;-55
2022/09/03 00:52:43;;;;;;;2.63;2.53;;;;;;;10.27;100.00;96874.72;5007976;28;20219;-58
2022/09/03 00:55:21;;;;;;;2.70;2.50;;;;;;;10.27;100.00;96886.16;4959393;28;20261;-59
2022/09/03 00:58:02;;;;;;;2.30;2.20;;;;;;;10.25;100.00;96890.00;5006843;28;20246;-54
2022/09/03 01:00:30;;;;;;;2.60;2.43;;;;;;;10.15;100.00;96892.94;4986715;28;20310;-54
2022/09/03 01:03:06;;;;;;;2.70;2.50;;;;;;;10.23;100.00;96886.72;5006947;28;20250;-57
2022/09/03 01:05:58;;;;;;;2.50;2.30;;;;;;;10.16;100.00;96889.28;5000992;28;20990;-52
2022/09/03 01:08:44;;;;;;;2.50;2.40;;;;;;;10.18;100.00;96892.56;5000017;28;20213;-57
2022/09/03 01:11:44;;;;;;;2.50;2.40;;;;;;;10.14;100.00;96894.78;4943578;28;20278;-59
2022/09/03 01:14:19;;;;;;;2.70;2.50;;;;;;;10.17;100.00;96900.72;5001790;28;20985;-55
2022/09/03 01:16:52;;;;;;;3.17;2.87;;;;;;;10.08;100.00;96911.44;4982080;28;20427;-56
2022/09/03 01:19:47;;;;;;;2.33;2.17;;;;;;;10.19;100.00;96904.78;5001799;28;20930;-55
2022/09/03 01:22:43;;;;;;;2.27;2.20;;;;;;;10.09;100.00;96893.69;4999805;28;20244;-59
2022/09/03 01:25:16;;;;;;;4.77;2.30;;;;;;;10.04;100.00;96901.38;4977388;28;20280;-58
2022/09/03 01:28:09;;;;;;;2.90;2.80;;;;;;;10.05;100.00;96905.66;4999511;28;20239;-56
2022/09/03 01:30:40;;;;;;;3.87;2.23;;;;;;;10.05;100.00;96898.56;5011623;28;20336;-56
2022/09/03 01:33:17;;;;;;;2.27;2.17;;;;;;;10.10;100.00;96900.63;4982356;28;20307;-60
2022/09/03 01:35:48;;;;;;;2.53;2.43;;;;;;;10.21;100.00;96901.97;5008448;28;20228;-53
2022/09/03 01:38:26;;;;;;;2.40;2.20;;;;;;;10.16;100.00;96888.47;5005866;28;20492;-56
2022/09/03 01:43:59;;;;;;;2.30;2.20;;;;;;;10.14;100.00;96886.84;5001010;28;20200;-59
2022/09/03 01:46:30;;;;;;;2.77;2.10;;;;;;;9.94;100.00;96885.81;4987887;28;20282;-55
2022/09/03 01:49:06;;;;;;;2.60;2.40;;;;;;;9.91;100.00;96889.66;5001173;28;20537;-54
2022/09/03 01:51:34;;;;;;;5.50;2.37;;;;;;;9.93;100.00;96889.47;5004185;28;20431;-57
2022/09/03 01:54:28;;;;;;;2.50;2.30;;;;;;;10.05;100.00;96879.19;5008004;28;20274;-59
2022/09/03 01:57:25;;;;;;;2.53;2.43;;;;;;;10.10;100.00;96877.63;4961915;28;20325;-60
2022/09/03 02:00:06;;;;;;;2.13;2.03;;;;;;;10.04;100.00;96888.16;5000640;28;21390;-60
2022/09/03 02:02:35;;;;;;;2.70;2.50;;;;;;;10.05;100.00;96892.44;4986995;28;20580;-57
2022/09/03 02:05:08;;;;;;;2.73;2.53;;;;;;;10.07;100.00;96890.41;5009623;28;20279;-57
2022/09/03 02:07:38;;;;;;;2.40;2.30;;;;;;;10.12;100.00;96886.22;4999626;28;20205;-52
2022/09/03 02:10:08;;;;;;;6.17;3.27;;;;;;;10.04;100.00;96891.63;5005536;28;20244;-59
2022/09/03 02:12:39;;;;;;;2.97;2.67;;;;;;;10.03;100.00;96889.97;4965064;28;20988;-54
2022/09/03 02:15:13;;;;;;;2.50;2.30;;;;;;;10.12;100.00;96888.03;5003035;28;20897;-58
2022/09/03 02:17:42;;;;;;;2.50;2.40;;;;;;;10.08;100.00;96884.94;4987390;28;20329;-56
2022/09/03 02:20:12;;;;;;;2.23;2.13;;;;;;;10.01;100.00;96884.03;5004403;28;20307;-60
2022/09/03 02:22:40;;;;;;;2.27;2.17;;;;;;;10.06;100.00;96881.69;5001043;28;20291;-57
2022/09/03 02:25:10;;;;;;;2.53;2.43;;;;;;;10.07;100.00;96875.38;5001602;28;20270;-59
2022/09/03 02:27:38;;;;;;;2.70;2.60;;;;;;;10.01;100.00;96876.09;4966194;28;20326;-54
2022/09/03 02:30:10;;;;;;;2.90;2.70;;;;;;;9.92;100.00;96877.22;4999732;28;20270;-62
2022/09/03 02:32:38;;;;;;;2.20;2.00;;;;;;;9.96;100.00;96879.31;4985165;28;20318;-55
2022/09/03 02:35:07;;;;;;;2.60;2.50;;;;;;;9.92;100.00;96882.53;5002447;28;20293;-57
2022/09/03 02:37:35;;;;;;;2.60;2.40;;;;;;;9.93;100.00;96884.16;5002220;28;20255;-58
2022/09/03 02:40:05;;;;;;;2.43;2.33;;;;;;;9.92;100.00;96882.53;5008764;28;20239;-58
2022/09/03 02:42:33;;;;;;;2.50;2.40;;;;;;;9.93;100.00;96878.88;4966412;28;21140;-57
2022/09/03 02:45:08;;;;;;;2.43;2.30;;;;;;;9.69;100.00;96865.78;5006001;28;20200;-56
2022/09/03 02:47:39;;;;;;;2.63;2.40;;;;;;;9.75;100.00;96876.63;4921776;28;20273;-61
2022/09/03 02:50:08;;;;;;;2.50;2.27;;;;;;;9.75;100.00;96876.63;5003970;28;20313;-55
2022/09/03 02:52:36;;;;;;;3.03;2.40;;;;;;;9.73;100.00;96874.19;4991301;28;20282;-59
2022/09/03 02:55:06;;;;;;;2.50;2.40;;;;;;;9.75;100.00;96880.13;5005207;28;20745;-52
2022/09/03 02:57:34;;;;;;;2.77;2.57;;;;;;;9.65;100.00;96872.47;4999325;28;20239;-58
2022/09/03 03:00:03;;;;;;;2.43;2.33;;;;;;;9.69;100.00;96881.66;5003660;28;20221;-52
2022/09/03 03:02:31;;;;;;;2.40;2.30;;;;;;;9.69;100.00;96881.66;4962934;28;20273;-53
2022/09/03 03:05:01;;;;;;;2.53;2.43;;;;;;;9.63;100.00;96885.06;5007864;28;20214;-57
2022/09/03 03:07:32;;;;;;;2.90;2.70;;;;;;;9.63;100.00;96890.34;5008338;28;20278;-57
2022/09/03 03:10:00;;;;;;;2.60;2.50;;;;;;;9.52;100.00;96885.53;4986568;28;20583;-55
2022/09/03 03:12:30;;;;;;;2.47;2.37;;;;;;;9.44;100.00;96880.34;5007043;28;20197;-59
2022/09/03 03:14:58;;;;;;;2.63;2.53;;;;;;;9.42;100.00;96883.19;5010568;28;20283;-57
2022/09/03 03:17:27;;;;;;;2.60;2.40;;;;;;;9.47;100.00;96878.16;4973454;28;20323;-59
2022/09/03 03:19:55;;;;;;;2.90;2.50;;;;;;;9.48;100.00;96879.78;5003598;28;21045;-53
2022/09/03 03:22:25;;;;;;;4.00;2.70;;;;;;;9.45;100.00;96874.03;5011669;28;20228;-60
2022/09/03 03:24:54;;;;;;;2.67;2.57;;;;;;;9.34;100.00;96862.94;4988136;28;20236;-54
2022/09/03 03:27:22;;;;;;;2.93;2.80;;;;;;;9.36;100.00;96879.44;5011141;28;20283;-59
2022/09/03 03:29:51;;;;;;;2.60;2.50;;;;;;;9.39;100.00;96884.34;5007401;28;20284;-58
2022/09/03 03:32:19;;;;;;;2.83;2.73;;;;;;;9.31;100.00;96891.59;5012855;28;20251;-56
2022/09/03 03:34:47;;;;;;;3.07;2.80;;;;;;;9.22;100.00;96891.66;4967059;28;20208;-57
2022/09/03 03:37:15;;;;;;;2.73;2.60;;;;;;;9.23;100.00;96895.13;5008664;28;20222;-54
2022/09/03 03:39:45;;;;;;;2.83;2.63;;;;;;;9.22;100.00;96889.00;4985472;28;20878;-55
2022/09/03 03:42:14;;;;;;;2.87;2.70;;;;;;;9.16;100.00;96884.44;5008804;28;20215;-59
2022/09/03 03:44:42;;;;;;;3.97;2.73;;;;;;;9.12;100.00;96881.38;5004974;28;20284;-53
2022/09/03 03:47:11;;;;;;;2.90;2.80;;;;;;;9.10;100.00;96883.38;5007888;28;20291;-53
2022/09/03 03:49:39;;;;;;;2.60;2.50;;;;;;;9.07;100.00;96886.34;4971029;28;20304;-58
2022/09/03 03:52:07;;;;;;;3.10;2.90;;;;;;;9.01;100.00;96887.09;5008277;28;20291;-52
2022/09/03 03:54:35;;;;;;;3.30;3.00;;;;;;;8.94;100.00;96879.09;4990653;28;20240;-59
2022/09/03 03:57:05;;;;;;;3.00;2.80;;;;;;;8.90;100.00;96880.44;4981939;28;20288;-55
2022/09/03 03:59:33;;;;;;;3.00;2.90;;;;;;;8.94;100.00;96881.72;5005900;28;20733;-51
2022/09/03 04:02:01;;;;;;;2.87;2.67;;;;;;;9.00;100.00;96877.53;5009950;28;20287;-50
2022/09/03 04:04:30;;;;;;;2.93;2.73;;;;;;;9.08;100.00;96881.91;4972201;28;20211;-53
2022/09/03 04:06:58;;;;;;;3.07;2.90;;;;;;;9.05;100.00;96880.44;5009067;28;20834;-52
2022/09/03 04:09:26;;;;;;;2.63;2.53;;;;;;;9.09;100.00;96878.25;5005879;28;20560;-52
2022/09/03 04:11:56;;;;;;;2.97;2.77;;;;;;;9.14;100.00;96883.00;4988038;28;20819;-53
2022/09/03 04:14:26;;;;;;;3.00;2.90;;;;;;;9.09;100.00;96889.66;4997889;28;20882;-58
2022/09/03 04:16:55;;;;;;;3.00;2.87;;;;;;;9.13;100.00;96884.81;5002969;28;20776;-50
2022/09/03 04:19:24;;;;;;;2.73;2.63;;;;;;;9.17;100.00;96886.09;4937481;28;20771;-58
2022/09/03 04:21:53;;;;;;;2.97;2.77;;;;;;;9.21;100.00;96886.56;5003317;28;20704;-53
2022/09/03 04:24:21;;;;;;;2.70;2.60;;;;;;;9.24;100.00;96886.19;5003766;28;20274;-57
2022/09/03 04:26:50;;;;;;;2.90;2.70;;;;;;;9.33;100.00;96879.81;4987350;28;20271;-55
2022/09/03 04:29:20;;;;;;;2.57;2.40;;;;;;;9.39;100.00;96886.19;4975684;28;20851;-59
2022/09/03 04:34:35;;;;;;;2.83;2.70;;;;;;;9.55;100.00;96887.81;4950218;28;20771;-54
2022/09/03 04:37:03;;;;;;;2.43;2.33;;;;;;;9.58;100.00;96886.59;5006681;28;20228;-59
2022/09/03 04:39:31;;;;;;;2.77;2.67;;;;;;;9.62;100.00;96888.72;5001410;28;20213;-54
2022/09/03 04:41:59;;;;;;;3.20;3.00;;;;;;;9.74;100.00;96894.34;4983983;28;20983;-56
2022/09/03 04:44:27;;;;;;;3.77;3.53;;;;;;;9.80;100.00;96888.31;5005123;28;20259;-54
2022/09/03 04:46:57;;;;;;;2.93;2.57;;;;;;;9.93;100.00;96887.66;5003584;28;20255;-57
2022/09/03 04:49:25;;;;;;;2.70;2.60;;;;;;;9.94;100.00;96893.75;4954531;28;20988;-56
2022/09/03 04:51:53;;;;;;;2.83;2.63;;;;;;;10.01;100.00;96891.19;5001840;28;20659;-50
2022/09/03 04:54:21;;;;;;;2.63;2.53;;;;;;;10.08;100.00;96884.94;4928181;28;20279;-55
2022/09/03 04:56:54;;;;;;;2.70;2.57;;;;;;;10.09;100.00;96899.81;4987299;28;20361;-56
2022/09/03 04:59:23;;;;;;;2.67;2.57;;;;;;;10.07;100.00;96896.53;4968645;28;20304;-59
2022/09/03 05:01:51;;;;;;;2.97;2.77;;;;;;;10.02;100.00;96895.47;4992502;28;20686;-57
2022/09/03 05:04:21;;;;;;;2.90;2.70;;;;;;;10.10;100.00;96895.34;4985312;28;20213;-57
2022/09/03 05:06:49;;;;;;;2.50;2.40;;;;;;;10.09;100.00;96899.81;4998578;28;20767;-57
2022/09/03 05:09:17;;;;;;;3.00;2.80;;;;;;;10.10;100.00;96897.97;4959575;28;20447;-51
2022/09/03 05:11:45;;;;;;;3.07;2.87;;;;;;;10.03;100.00;96897.91;5000453;28;20919;-56
2022/09/03 05:14:13;;;;;;;2.57;2.47;;;;;;;9.98;100.00;96890.53;5004480;28;20205;-51
2022/09/03 05:16:42;;;;;;;2.93;2.50;;;;;;;10.11;100.00;96897.81;4979404;28;20754;-56
2022/09/03 05:19:21;;;;;;;2.67;2.57;;;;;;;10.20;100.00;96903.78;4974126;28;20211;-60
2022/09/03 05:21:49;;;;;;;2.63;2.43;;;;;;;10.34;100.00;96912.69;4986542;28;20246;-55
2022/09/03 05:24:17;;;;;;;2.93;2.73;;;;;;;10.47;100.00;96912.03;4960087;28;20222;-55
2022/09/03 05:26:45;;;;;;;2.87;2.67;;;;;;;10.64;100.00;96904.63;4978032;28;20275;-53
2022/09/03 05:29:14;;;;;;;2.73;2.63;;;;;;;10.87;100.00;96908.91;5004781;28;20205;-54
2022/09/03 05:31:42;;;;;;;3.27;3.07;;;;;;;11.04;100.00;96911.25;4989502;28;20319;-53
2022/09/03 05:34:11;;;;;;;3.23;3.03;;;;;;;11.10;100.00;96908.66;4990732;28;20216;-59
2022/09/03 05:36:48;;;;;;;10.30;9.20;;;;;;;11.17;100.00;96911.31;4996868;28;20232;-57
2022/09/03 05:39:17;;;;;;;3.83;3.53;;;;;;;11.13;100.00;96910.91;4992105;28;20208;-59
2022/09/03 05:41:45;;;;;;;2.67;2.47;;;;;;;11.16;100.00;96907.03;4994548;28;20220;-58
2022/09/03 05:44:14;;;;;;;3.67;2.83;;;;;;;11.10;100.00;96907.81;5005804;28;20659;-57
2022/09/03 05:46:42;;;;;;;2.75;2.55;;;;;;;11.07;100.00;96908.19;4988666;28;20449;-54
2022/09/03 05:49:10;;;;;;;2.80;2.70;;;;;;;11.11;100.00;96912.09;4991649;28;20243;-58
2022/09/03 05:51:39;;;;;;;2.83;2.63;;;;;;;11.26;100.00;96909.34;4991656;28;20546;-57
2022/09/03 05:54:09;;;;;;;2.80;2.57;;;;;;;11.33;100.00;96906.75;4986108;28;20303;-56
2022/09/03 05:56:40;;;;;;;6.40;5.03;;;;;;;11.38;100.00;96901.66;4972077;28;20867;-54
2022/09/03 05:59:09;;;;;;;3.90;3.60;;;;;;;11.42;100.00;96909.03;4997217;28;20216;-60
2022/09/03 06:01:39;;;;;;;3.20;3.00;;;;;;;11.40;100.00;96900.47;5008960;28;20232;-56
2022/09/03 06:04:09;;;;;;;2.87;2.63;;;;;;;11.31;100.00;96900.81;4983911;28;20208;-60
2022/09/03 06:06:38;;;;;;;3.97;2.67;;;;;;;11.32;100.00;96899.78;4961537;28;20744;-61
2022/09/03 06:09:10;;;;;;;2.70;2.53;;;;;;;11.33;100.00;96898.78;4989296;28;20286;-53
2022/09/03 06:11:39;;;;;;;2.30;2.20;;;;;;;-101.16;100.00;96902.50;4967118;28;20244;-59
2022/09/03 06:14:09;;;;;;;3.30;2.40;;;;;;;11.59;100.00;96908.69;5004079;28;20215;-54
2022/09/03 06:16:39;;;;;;;2.07;2.00;;;;;;;11.74;100.00;96900.59;5004441;28;20232;-58
2022/09/03 06:19:09;;;;;;;2.30;2.20;;;;;;;11.85;100.00;96900.03;4971513;28;20208;-55
2022/09/03 06:21:41;;;;;;;2.20;2.10;;;;;;;11.95;100.00;96901.50;4994684;28;20252;-57
2022/09/03 06:24:12;;;;;;;2.70;2.10;;;;;;;12.04;100.00;96902.97;4999254;28;20219;-55
2022/09/03 06:26:41;;;;;;;2.40;2.20;;;;;;;12.29;100.00;96913.03;4948709;28;20216;-54
2022/09/03 06:29:11;;;;;;;2.00;1.90;;;;;;;12.46;100.00;96916.13;4998944;28;20212;-52
2022/09/03 06:31:39;;;;;;;2.70;2.60;;;;;;;12.69;100.00;96918.41;5004711;28;20232;-58
2022/09/03 06:34:08;;;;;;;2.10;2.00;;;;;;;12.75;100.00;96911.44;4992336;28;20205;-58
2022/09/03 06:36:36;;;;;;;2.10;2.00;;;;;;;13.00;100.00;96908.97;5005782;28;21280;-56
2022/09/03 06:39:04;;;;;;;2.23;2.13;;;;;;;13.02;100.00;96901.59;4992301;28;21025;-59
2022/09/03 06:41:34;;;;;;;2.50;2.40;;;;;;;12.89;100.00;96912.28;4982852;28;20267;-60
2022/09/03 06:44:05;;;;;;;2.00;1.87;;;;;;;13.14;100.00;96912.44;4985750;28;20207;-57
2022/09/03 06:46:34;;;;;;;2.50;2.30;;;;;;;13.42;100.00;96916.72;5011113;28;20257;-57
2022/09/03 06:49:03;;;;;;;5.40;4.90;;;;;;;13.62;100.00;96915.03;5007680;28;20264;-56
2022/09/03 06:51:32;;;;;;;3.37;2.90;;;;;;;13.83;100.00;96921.91;4987854;28;20815;-59
2022/09/03 06:54:01;;;;;;;2.90;2.60;;;;;;;13.60;100.00;96918.72;4981313;28;20672;-54
2022/09/03 06:56:31;;;;;;;2.47;2.27;;;;;;;13.55;100.00;96923.84;4982264;28;20247;-61
2022/09/03 06:59:09;;;;;;;2.55;2.35;;;;;;;13.80;100.00;96927.66;4982237;28;20836;-54
2022/09/03 07:01:39;;;;;;;2.50;2.17;;;;;;;13.88;100.00;96933.56;4944529;28;20615;-57
2022/09/03 07:04:12;;;;;;;2.20;2.10;;;;;;;14.18;100.00;96929.53;4991181;28;20457;-58
2022/09/03 07:06:41;;;;;;;3.70;2.30;;;;;;;14.41;100.00;96931.66;4994810;28;20327;-60
2022/09/03 07:09:11;;;;;;;2.33;2.20;;;;;;;14.35;100.00;96929.84;4999098;28;20995;-55
2022/09/03 07:11:45;;;;;;;2.47;2.28;;;;;;;14.28;100.00;96929.09;4997973;28;20822;-50
2022/09/03 07:14:17;;;;;;;2.07;1.90;;;;;;;14.18;100.00;96940.19;5000832;28;20514;-53
2022/09/03 07:16:46;;;;;;;2.13;1.93;;;;;;;14.22;100.00;96935.28;4955650;28;20777;-57
2022/09/03 07:19:15;;;;;;;2.70;2.27;;;;;;;14.14;100.00;96933.66;4996354;28;20287;-58
2022/09/03 07:21:44;;;;;;;2.30;2.10;;;;;;;14.28;100.00;96924.56;4999367;28;20345;-55
2022/09/03 07:24:18;;;;;;;2.35;2.20;;;;;;;14.39;100.00;96924.91;4981315;28;20462;-56
2022/09/03 07:26:47;;;;;;;3.27;2.10;;;;;;;14.81;100.00;96922.59;4998069;28;20209;-52
2022/09/03 07:29:18;;;;;;;2.47;2.33;;;;;;;15.06;100.00;96913.75;4998602;28;20413;-53
2022/09/03 07:31:50;;;;;;;2.00;1.90;;;;;;;15.21;100.00;96926.75;4957101;28;20595;-55
2022/09/03 07:34:19;;;;;;;2.10;2.00;;;;;;;15.19;100.00;96926.16;4999239;28;20197;-57
2022/09/03 07:36:49;;;;;;;2.20;2.10;;;;;;;15.25;100.00;96917.28;4996791;28;20661;-56
2022/09/03 07:39:19;;;;;;;1.90;1.80;;;;;;;15.02;100.00;96918.72;4985742;28;20213;-59
2022/09/03 07:41:47;;;;;;;2.27;2.17;;;;;;;15.33;100.00;96922.31;5003214;28;20833;-55
2022/09/03 07:44:19;;;;;;;1.90;1.80;;;;;;;15.55;100.00;96921.91;4997435;28;20919;-53
2022/09/03 07:46:49;;;;;;;2.10;2.00;;;;;;;15.85;100.00;96923.81;4954757;28;20283;-56
2022/09/03 07:49:19;;;;;;;2.50;2.30;;;;;;;16.01;98.76;96932.28;5004923;28;20741;-57
2022/09/03 07:51:49;;;;;;;2.23;2.13;;;;;;;15.98;98.61;96927.38;5002053;28;20291;-56
2022/09/03 07:54:19;;;;;;;2.37;2.17;;;;;;;16.28;94.01;96932.75;4992683;28;20213;-59
2022/09/03 07:56:47;;;;;;;2.20;1.87;;;;;;;16.43;98.51;96928.84;5000883;28;20455;-56
2022/09/03 07:59:16;;;;;;;2.40;2.20;;;;;;;16.74;91.13;96927.75;5000650;28;20902;-54
2022/09/03 08:01:45;;;;;;;2.00;1.90;;;;;;;16.64;91.64;96933.66;4953857;28;20288;-58
2022/09/03 08:04:13;;;;;;;3.03;2.13;;;;;;;16.75;91.02;96932.06;5003516;28;20700;-58
2022/09/03 08:06:41;;;;;;;2.20;2.10;;;;;;;17.03;90.11;96935.16;5006788;28;20204;-57
2022/09/03 08:09:12;;;;;;;2.57;1.67;;;;;;;17.32;81.12;96941.47;4994873;28;20883;-53
2022/09/03 08:11:42;;;;;;;1.80;1.63;;;;;;;17.08;86.79;96948.69;5004909;28;20248;-56
2022/09/03 08:14:12;;;;;;;2.00;1.90;;;;;;;16.72;92.02;96948.56;5002063;28;20713;-58
2022/09/03 08:16:43;;;;;;;3.83;2.40;;;;;;;17.17;89.54;96954.47;5009591;28;20264;-56
2022/09/03 08:19:11;;;;;;;2.37;2.17;;;;;;;17.48;84.02;96941.78;4954155;28;20521;-55
2022/09/03 08:21:41;;;;;;;2.30;2.10;;;;;;;17.85;84.52;96941.50;5003920;28;20299;-55
2022/09/03 08:24:10;;;;;;;4.33;2.13;;;;;;;17.84;82.07;96944.44;4985079;28;20200;-57
2022/09/03 08:26:40;;;;;;;1.60;1.50;;;;;;;17.90;81.68;96946.97;5005941;28;20236;-54
2022/09/03 08:29:11;;;;;;;2.50;2.10;;;;;;;18.40;79.29;96943.91;5001030;28;20309;-53
2022/09/03 08:31:39;;;;;;;2.33;1.80;;;;;;;18.60;74.51;96941.59;5010749;28;20327;-55
2022/09/03 08:34:10;;;;;;;2.77;2.00;;;;;;;18.87;78.59;96943.66;4958380;28;20719;-56
2022/09/03 08:36:40;;;;;;;1.80;1.70;;;;;;;18.93;78.92;96939.19;5008186;28;20301;-58
2022/09/03 08:39:09;;;;;;;3.03;1.80;;;;;;;19.33;70.52;96940.09;5002238;28;20228;-55
2022/09/03 08:42:14;;;;;;;3.37;1.93;;;;;;;19.49;69.79;96935.72;4991728;28;20236;-57
2022/09/03 08:44:45;;;;;;;1.90;1.80;;;;;;;19.35;71.96;96933.41;4944034;28;20206;-56
2022/09/03 08:47:18;;;;;;;2.10;2.00;;;;;;;19.16;74.41;96932.06;4938626;28;20203;-56
2022/09/03 08:49:51;;;;;;;2.43;2.23;;;;;;;18.94;76.33;96935.44;4896117;28;20214;-56
2022/09/03 08:52:25;;;;;;;1.90;1.80;;;;;;;19.22;72.89;96933.75;4938062;28;20437;-56
2022/09/03 08:55:00;;;;;;;1.77;1.67;;;;;;;19.61;68.42;96924.88;4943359;28;20256;-53
2022/09/03 08:57:33;;;;;;;2.30;2.20;;;;;;;19.47;73.46;96924.41;4942383;28;20210;-55
2022/09/03 09:00:01;;;;;;;2.53;2.33;;;;;;;19.46;73.21;96925.47;4942862;28;20238;-58
2022/09/03 09:02:41;;;;;;;1.80;1.70;;;;;;;19.49;68.55;96922.28;4943501;28;20209;-57
2022/09/03 09:05:13;;;;;;;3.00;2.13;;;;;;;19.60;72.38;96925.94;4890755;28;20226;-53
2022/09/03 09:07:46;;;;;;;5.03;2.83;;;;;;;19.67;71.53;96930.09;4886795;28;20793;-55
2022/09/03 09:10:21;;;;;;;2.13;1.93;;;;;;;20.02;67.00;96919.25;4945803;28;20284;-57
2022/09/03 09:13:01;;;;;;;2.43;2.23;;;;;;;20.02;64.74;96920.03;4930014;28;20246;-58
2022/09/03 09:15:35;;;;;;;1.93;1.77;;;;;;;20.05;70.90;96921.41;4942509;28;20314;-53
2022/09/03 09:18:13;;;;;;;3.67;2.00;;;;;;;20.32;67.96;96918.75;4940970;28;20234;-59
2022/09/03 09:20:49;;;;;;;2.13;1.70;;;;;;;20.39;66.46;96922.03;5001796;28;20661;-56
2022/09/03 09:23:22;;;;;;;4.37;2.13;;;;;;;20.65;64.56;96914.22;4969010;28;20759;-58
2022/09/03 09:25:54;;;;;;;2.07;1.97;;;;;;;20.79;64.26;96914.63;5004363;28;20205;-56
2022/09/03 09:28:24;;;;;;;2.73;1.73;;;;;;;20.93;60.83;96915.03;5000165;28;20250;-57
2022/09/03 09:30:55;;;;;;;1.90;1.80;;;;;;;21.01;58.49;96911.03;5007175;28;20742;-57
2022/09/03 09:33:24;;;;;;;5.20;1.93;;;;;;;20.85;61.50;96910.13;4992225;28;20220;-55
2022/09/03 09:35:53;;;;;;;4.67;1.97;;;;;;;21.03;61.55;96906.22;5008133;28;20604;-57
2022/09/03 09:38:29;;;;;;;2.00;1.80;;;;;;;20.81;60.66;96895.53;4998915;28;20744;-55
2022/09/03 09:41:08;;;;;;;2.00;1.90;;;;;;;20.78;64.56;96896.00;4955813;28;20387;-59
2022/09/03 09:43:37;;;;;;;3.63;2.03;;;;;;;20.68;66.41;96892.16;5006799;28;20302;-55
2022/09/03 09:46:12;;;;;;;2.67;2.47;;;;;;;20.58;62.18;96888.56;5000735;28;21597;-56
2022/09/03 09:48:47;;;;;;;2.30;2.10;;;;;;;20.66;60.42;96885.44;4991703;28;20222;-52
2022/09/03 09:51:21;;;;;;;3.37;1.97;;;;;;;20.87;64.43;96888.31;5001260;28;20319;-55
2022/09/03 09:54:01;;;;;;;1.77;1.63;;;;;;;21.00;60.28;96884.38;5001746;28;20240;-51
2022/09/03 09:56:29;;;;;;;1.87;1.73;;;;;;;21.14;58.37;96887.44;4955846;28;20483;-58
2022/09/03 09:59:07;;;;;;;2.43;2.23;;;;;;;21.30;61.02;96877.56;5000147;28;20221;-57
2022/09/03 10:01:38;;;;;;;2.60;1.93;;;;;;;21.21;59.58;96869.97;5000981;28;20858;-54
2022/09/03 10:04:11;;;;;;;2.57;2.10;;;;;;;21.26;62.84;96874.56;4988203;28;20270;-55
2022/09/03 10:06:56;;;;;;;3.20;2.90;;;;;;;21.59;62.27;96869.06;5004271;28;20489;-56
2022/09/03 10:09:26;;;;;;;2.90;1.93;;;;;;;21.57;58.81;96865.81;4998914;28;20769;-59
2022/09/03 10:12:08;;;;;;;2.93;1.93;;;;;;;21.81;53.58;96863.53;4956960;28;20235;-57
2022/09/03 10:14:42;;;;;;;1.83;1.70;;;;;;;21.81;53.78;96853.53;4998951;28;20227;-55
2022/09/03 10:17:14;;;;;;;2.20;2.10;;;;;;;21.88;54.74;96855.16;5000835;28;20324;-54
2022/09/03 10:20:26;;;;;;;1.57;1.53;;;;;;;22.04;53.84;96854.16;4990727;28;20312;-54
2022/09/03 10:22:45;;;;;;;2.33;1.77;;;;;;;22.12;53.32;96853.63;5002971;28;20200;-59
2022/09/03 10:25:27;;;;;;;2.17;2.07;;;;;;;22.50;53.29;96855.31;5003351;28;20881;-56
2022/09/03 10:28:00;;;;;;;1.90;1.80;;;;;;;22.84;52.05;96852.06;4959863;28;20303;-59
2022/09/03 10:30:30;;;;;;;6.93;2.50;;;;;;;22.82;52.74;96859.63;5001369;28;20429;-53
2022/09/03 10:33:08;;;;;;;2.10;1.97;;;;;;;22.77;51.19;96852.34;5000186;28;20233;-54
2022/09/03 10:35:42;;;;;;;2.00;1.90;;;;;;;23.05;52.29;96850.16;4991228;28;21142;-57
2022/09/03 10:38:18;;;;;;;3.33;2.27;;;;;;;23.52;49.97;96852.75;5000075;28;20330;-54
2022/09/03 10:40:52;;;;;;;2.53;2.13;;;;;;;24.33;48.73;96862.63;5005973;28;20765;-56
2022/09/03 10:43:37;;;;;;;1.73;1.63;;;;;;;24.34;47.98;96842.59;4952869;28;20316;-56
2022/09/03 10:46:11;;;;;;;2.07;1.97;;;;;;;24.54;45.31;96850.56;5005167;28;20742;-57
2022/09/03 10:48:58;;;;;;;2.60;1.70;;;;;;;24.13;46.19;96843.53;5005957;28;20236;-52
2022/09/03 10:51:32;;;;;;;1.70;1.60;;;;;;;24.06;47.31;96850.38;4988504;28;20231;-54
2022/09/03 10:54:14;;;;;;;2.10;1.77;;;;;;;24.31;47.36;96859.41;5004655;28;20207;-56
2022/09/03 10:56:49;;;;;;;1.77;1.70;;;;;;;24.61;48.35;96846.72;5004174;28;20523;-58
2022/09/03 10:59:31;;;;;;;1.33;1.33;;;;;;;24.17;46.97;96851.09;4954250;28;20263;-57
2022/09/03 11:02:15;;;;;;;1.93;1.67;;;;;;;23.90;48.28;96845.00;5008335;28;20224;-54
2022/09/03 11:04:49;;;;;;;1.80;1.70;;;;;;;24.06;47.24;96839.56;5003834;28;20204;-58
2022/09/03 11:07:20;;;;;;;2.20;2.00;;;;;;;23.92;49.31;96842.81;4992525;28;20208;-57
2022/09/03 11:09:53;;;;;;;3.33;1.63;;;;;;;23.51;49.70;96843.03;5007015;28;20236;-57
2022/09/03 11:12:25;;;;;;;1.90;1.90;;;;;;;23.41;51.05;96844.69;4954172;28;20551;-54
2022/09/03 11:14:57;;;;;;;1.77;1.67;;;;;;;23.45;49.76;96844.91;4947648;28;21035;-55
2022/09/03 11:17:29;;;;;;;1.60;1.60;;;;;;;23.62;51.25;96831.06;4991436;28;20228;-58
2022/09/03 11:20:11;;;;;;;1.50;1.40;;;;;;;24.05;48.32;96841.44;5002020;28;20232;-57
2022/09/03 11:22:40;;;;;;;2.33;2.13;;;;;;;24.08;49.83;96835.47;4987236;28;22982;-54
2022/09/03 11:25:11;;;;;;;1.93;1.83;;;;;;;24.09;49.37;96836.28;5003117;28;20208;-58
2022/09/03 11:27:52;;;;;;;2.73;2.20;;;;;;;24.12;47.62;96838.44;5003626;28;20266;-56
2022/09/03 11:30:25;;;;;;;2.30;1.83;;;;;;;24.16;49.56;96841.38;4983931;28;20227;-59
2022/09/03 11:32:55;;;;;;;1.83;1.73;;;;;;;24.77;44.79;96839.31;4992367;28;20235;-57
2022/09/03 11:35:30;;;;;;;2.10;2.00;;;;;;;24.77;46.80;96834.69;5006667;28;20354;-57
2022/09/03 11:38:00;;;;;;;2.23;1.70;;;;;;;24.76;44.44;96835.00;4991254;28;20219;-54
2022/09/03 11:40:40;;;;;;;2.47;1.67;;;;;;;24.88;43.12;96840.81;5004646;28;20251;-56
2022/09/03 11:43:13;;;;;;;1.87;1.77;;;;;;;24.67;44.21;96837.47;5008878;28;20296;-55
2022/09/03 11:45:42;;;;;;;2.27;1.80;;;;;;;24.55;44.25;96845.97;5003877;28;20231;-58
2022/09/03 11:48:19;;;;;;;1.83;1.60;;;;;;;24.75;43.83;96836.88;4959551;28;20224;-56
2022/09/03 11:50:54;;;;;;;2.43;1.73;;;;;;;24.10;45.31;96840.59;5004982;28;20242;-53
2022/09/03 11:53:27;;;;;;;2.00;1.80;;;;;;;24.07;46.39;96838.47;5002701;28;20243;-57
2022/09/03 11:56:00;;;;;;;1.97;1.87;;;;;;;24.47;44.95;96841.97;5003706;28;20204;-53
2022/09/03 11:58:31;;;;;;;1.73;1.40;;;;;;;24.39;47.21;96834.44;4999946;28;20655;-57